sensor_id;sensor_type;location;lat;lon;timestamp;pressure;altitude;pressure_sealevel;temperature;humidity
62926;BME280;55732;52.248;-0.844;2023-01-27T00:01:54;102320.15;;;3.12;86.84
62926;BME280;55732;52.248;-0.844;2023-01-27T00:04:19;102314.31;;;3.17;86.67
62926;BME280;55732;52.248;-0.844;2023-01-27T00:06:44;102312.80;;;3.21;86.63
62926;BME280;55732;52.248;-0.844;2023-01-27T00:09:10;102310.77;;;3.25;86.58
62926;BME280;55732;52.248;-0.844;2023-01-27T00:11:36;102319.71;;;3.29;86.54
62926;BME280;55732;52.248;-0.844;2023-01-27T00:14:21;102316.13;;;3.34;86.52
62926;BME280;55732;52.248;-0.844;2023-01-27T00:16:47;102315.33;;;3.38;86.49
62926;BME280;55732;52.248;-0.844;2023-01-27T00:19:12;102312.05;;;3.42;86.45
62926;BME280;55732;52.248;-0.844;2023-01-27T00:21:38;102311.20;;;3.46;86.31
62926;BME280;55732;52.248;-0.844;2023-01-27T00:24:22;102305.02;;;3.47;86.10
62926;BME280;55732;52.248;-0.844;2023-01-27T00:27:00;102303.56;;;3.49;86.15
62926;BME280;55732;52.248;-0.844;2023-01-27T00:29:25;102298.41;;;3.50;86.03
62926;BME280;55732;52.248;-0.844;2023-01-27T00:31:51;102300.56;;;3.51;86.08
62926;BME280;55732;52.248;-0.844;2023-01-27T00:34:35;102301.51;;;3.52;85.90
62926;BME280;55732;52.248;-0.844;2023-01-27T00:37:00;102299.33;;;3.54;86.05
62926;BME280;55732;52.248;-0.844;2023-01-27T00:39:25;102297.12;;;3.55;85.98
62926;BME280;55732;52.248;-0.844;2023-01-27T00:41:51;102292.61;;;3.59;85.91
62926;BME280;55732;52.248;-0.844;2023-01-27T00:44:16;102287.13;;;3.60;85.84
62926;BME280;55732;52.248;-0.844;2023-01-27T00:46:42;102282.23;;;3.63;85.84
62926;BME280;55732;52.248;-0.844;2023-01-27T00:49:08;102281.48;;;3.66;85.70
62926;BME280;55732;52.248;-0.844;2023-01-27T00:51:34;102286.58;;;3.67;85.65
62926;BME280;55732;52.248;-0.844;2023-01-27T00:54:01;102287.77;;;3.66;85.52
62926;BME280;55732;52.248;-0.844;2023-01-27T00:56:28;102290.61;;;3.67;85.63
62926;BME280;55732;52.248;-0.844;2023-01-27T00:58:54;102296.13;;;3.69;85.67
62926;BME280;55732;52.248;-0.844;2023-01-27T01:01:19;102295.27;;;3.73;85.67
62926;BME280;55732;52.248;-0.844;2023-01-27T01:03:44;102288.91;;;3.77;85.61
62926;BME280;55732;52.248;-0.844;2023-01-27T01:06:12;102282.79;;;3.80;85.77
62926;BME280;55732;52.248;-0.844;2023-01-27T01:08:38;102288.45;;;3.82;85.91
62926;BME280;55732;52.248;-0.844;2023-01-27T01:11:05;102292.05;;;3.84;86.07
62926;BME280;55732;52.248;-0.844;2023-01-27T01:13:31;102291.86;;;3.87;86.03
62926;BME280;55732;52.248;-0.844;2023-01-27T01:16:04;102290.52;;;3.88;86.09
62926;BME280;55732;52.248;-0.844;2023-01-27T01:18:29;102291.33;;;3.90;86.19
62926;BME280;55732;52.248;-0.844;2023-01-27T01:20:55;102299.91;;;3.91;86.30
62926;BME280;55732;52.248;-0.844;2023-01-27T01:23:20;102301.38;;;3.92;86.26
62926;BME280;55732;52.248;-0.844;2023-01-27T01:25:53;102300.42;;;3.94;86.36
62926;BME280;55732;52.248;-0.844;2023-01-27T01:28:19;102300.83;;;3.95;86.26
62926;BME280;55732;52.248;-0.844;2023-01-27T01:30:45;102298.73;;;3.95;86.34
62926;BME280;55732;52.248;-0.844;2023-01-27T01:33:11;102295.41;;;3.95;86.41
62926;BME280;55732;52.248;-0.844;2023-01-27T01:35:37;102292.48;;;3.95;86.49
62926;BME280;55732;52.248;-0.844;2023-01-27T01:38:03;102291.41;;;3.95;86.53
62926;BME280;55732;52.248;-0.844;2023-01-27T01:40:28;102290.24;;;3.93;86.49
62926;BME280;55732;52.248;-0.844;2023-01-27T01:43:02;102293.09;;;3.90;86.61
62926;BME280;55732;52.248;-0.844;2023-01-27T01:48:03;102297.43;;;3.90;86.79
62926;BME280;55732;52.248;-0.844;2023-01-27T01:50:30;102293.92;;;3.90;87.04
62926;BME280;55732;52.248;-0.844;2023-01-27T01:52:58;102292.02;;;3.89;87.06
62926;BME280;55732;52.248;-0.844;2023-01-27T01:55:24;102282.96;;;3.90;87.05
62926;BME280;55732;52.248;-0.844;2023-01-27T01:57:50;102280.09;;;3.92;87.12
62926;BME280;55732;52.248;-0.844;2023-01-27T02:00:16;102278.75;;;3.93;87.02
62926;BME280;55732;52.248;-0.844;2023-01-27T02:02:42;102280.73;;;3.94;87.19
62926;BME280;55732;52.248;-0.844;2023-01-27T02:05:29;102283.90;;;3.94;87.11
62926;BME280;55732;52.248;-0.844;2023-01-27T02:07:58;102280.81;;;3.95;87.21
62926;BME280;55732;52.248;-0.844;2023-01-27T02:10:26;102285.05;;;3.96;87.37
62926;BME280;55732;52.248;-0.844;2023-01-27T02:12:52;102286.13;;;3.97;87.29
62926;BME280;55732;52.248;-0.844;2023-01-27T02:15:18;102281.92;;;3.96;87.41
62926;BME280;55732;52.248;-0.844;2023-01-27T02:17:46;102277.40;;;3.96;87.51
62926;BME280;55732;52.248;-0.844;2023-01-27T02:28:17;102278.17;;;3.98;87.84
62926;BME280;55732;52.248;-0.844;2023-01-27T02:30:42;102274.00;;;3.98;87.72
62926;BME280;55732;52.248;-0.844;2023-01-27T02:33:12;102275.61;;;3.99;87.73
62926;BME280;55732;52.248;-0.844;2023-01-27T02:35:43;102274.23;;;3.99;87.70
62926;BME280;55732;52.248;-0.844;2023-01-27T02:38:11;102267.97;;;3.99;87.71
62926;BME280;55732;52.248;-0.844;2023-01-27T02:40:40;102262.58;;;3.99;87.84
62926;BME280;55732;52.248;-0.844;2023-01-27T02:43:05;102262.36;;;3.98;87.96
62926;BME280;55732;52.248;-0.844;2023-01-27T02:45:31;102263.65;;;3.97;87.92
62926;BME280;55732;52.248;-0.844;2023-01-27T02:47:56;102259.98;;;3.97;88.07
62926;BME280;55732;52.248;-0.844;2023-01-27T02:50:21;102259.45;;;3.97;87.92
62926;BME280;55732;52.248;-0.844;2023-01-27T02:52:47;102255.42;;;3.96;88.15
62926;BME280;55732;52.248;-0.844;2023-01-27T02:55:12;102250.34;;;3.96;88.12
62926;BME280;55732;52.248;-0.844;2023-01-27T02:57:38;102247.30;;;3.94;88.04
62926;BME280;55732;52.248;-0.844;2023-01-27T03:00:03;102245.04;;;3.91;88.00
62926;BME280;55732;52.248;-0.844;2023-01-27T03:02:29;102245.39;;;3.91;88.15
62926;BME280;55732;52.248;-0.844;2023-01-27T03:04:56;102244.29;;;3.90;88.29
62926;BME280;55732;52.248;-0.844;2023-01-27T03:07:22;102246.58;;;3.91;88.48
62926;BME280;55732;52.248;-0.844;2023-01-27T03:09:48;102247.83;;;3.91;88.50
62926;BME280;55732;52.248;-0.844;2023-01-27T03:12:14;102246.77;;;3.91;88.50
62926;BME280;55732;52.248;-0.844;2023-01-27T03:14:49;102246.23;;;3.91;88.57
62926;BME280;55732;52.248;-0.844;2023-01-27T03:17:35;102245.84;;;3.90;88.59
62926;BME280;55732;52.248;-0.844;2023-01-27T03:20:20;102246.87;;;3.90;88.71
62926;BME280;55732;52.248;-0.844;2023-01-27T03:22:47;102245.85;;;3.90;88.68
62926;BME280;55732;52.248;-0.844;2023-01-27T03:25:16;102241.48;;;3.90;88.73
62926;BME280;55732;52.248;-0.844;2023-01-27T03:27:42;102242.09;;;3.88;88.80
62926;BME280;55732;52.248;-0.844;2023-01-27T03:30:08;102246.20;;;3.86;88.92
62926;BME280;55732;52.248;-0.844;2023-01-27T03:32:34;102242.33;;;3.86;88.95
62926;BME280;55732;52.248;-0.844;2023-01-27T03:35:00;102247.40;;;3.86;89.00
62926;BME280;55732;52.248;-0.844;2023-01-27T03:37:27;102244.30;;;3.87;89.04
62926;BME280;55732;52.248;-0.844;2023-01-27T03:40:12;102242.73;;;3.87;89.11
62926;BME280;55732;52.248;-0.844;2023-01-27T03:42:57;102243.11;;;3.87;89.24
62926;BME280;55732;52.248;-0.844;2023-01-27T03:45:47;102245.41;;;3.88;89.14
62926;BME280;55732;52.248;-0.844;2023-01-27T03:48:32;102246.44;;;3.88;89.26
62926;BME280;55732;52.248;-0.844;2023-01-27T03:50:58;102244.40;;;3.88;89.42
62926;BME280;55732;52.248;-0.844;2023-01-27T03:53:24;102242.71;;;3.90;89.59
62926;BME280;55732;52.248;-0.844;2023-01-27T03:55:50;102237.31;;;3.90;89.57
62926;BME280;55732;52.248;-0.844;2023-01-27T03:58:22;102232.17;;;3.88;89.53
62926;BME280;55732;52.248;-0.844;2023-01-27T04:00:51;102238.42;;;3.85;89.72
62926;BME280;55732;52.248;-0.844;2023-01-27T04:03:17;102236.49;;;3.81;89.83
62926;BME280;55732;52.248;-0.844;2023-01-27T04:06:10;102237.59;;;3.79;89.94
62926;BME280;55732;52.248;-0.844;2023-01-27T04:08:55;102240.50;;;3.77;90.18
62926;BME280;55732;52.248;-0.844;2023-01-27T04:11:21;102238.95;;;3.78;90.38
62926;BME280;55732;52.248;-0.844;2023-01-27T04:14:06;102244.78;;;3.79;90.22
62926;BME280;55732;52.248;-0.844;2023-01-27T04:16:33;102243.72;;;3.79;90.38
62926;BME280;55732;52.248;-0.844;2023-01-27T04:19:02;102238.34;;;3.80;90.51
62926;BME280;55732;52.248;-0.844;2023-01-27T04:21:28;102238.05;;;3.81;90.67
62926;BME280;55732;52.248;-0.844;2023-01-27T04:23:54;102238.10;;;3.82;90.88
62926;BME280;55732;52.248;-0.844;2023-01-27T04:26:20;102237.10;;;3.83;90.99
62926;BME280;55732;52.248;-0.844;2023-01-27T04:28:47;102235.27;;;3.84;91.11
62926;BME280;55732;52.248;-0.844;2023-01-27T04:31:14;102234.73;;;3.83;91.10
62926;BME280;55732;52.248;-0.844;2023-01-27T04:33:40;102235.20;;;3.86;91.21
62926;BME280;55732;52.248;-0.844;2023-01-27T04:36:07;102229.19;;;3.88;91.10
62926;BME280;55732;52.248;-0.844;2023-01-27T04:38:32;102234.80;;;3.88;91.19
62926;BME280;55732;52.248;-0.844;2023-01-27T04:40:58;102237.62;;;3.89;91.24
62926;BME280;55732;52.248;-0.844;2023-01-27T04:43:23;102234.15;;;3.89;91.28
62926;BME280;55732;52.248;-0.844;2023-01-27T04:45:48;102229.46;;;3.90;91.27
62926;BME280;55732;52.248;-0.844;2023-01-27T04:48:14;102234.69;;;3.90;91.53
62926;BME280;55732;52.248;-0.844;2023-01-27T04:50:39;102231.71;;;3.89;91.58
62926;BME280;55732;52.248;-0.844;2023-01-27T04:53:05;102229.94;;;3.89;91.62
62926;BME280;55732;52.248;-0.844;2023-01-27T04:55:30;102232.39;;;3.89;91.76
62926;BME280;55732;52.248;-0.844;2023-01-27T04:57:56;102229.25;;;3.92;92.06
62926;BME280;55732;52.248;-0.844;2023-01-27T05:00:21;102235.50;;;3.95;92.03
62926;BME280;55732;52.248;-0.844;2023-01-27T05:02:46;102236.48;;;3.97;92.01
62926;BME280;55732;52.248;-0.844;2023-01-27T05:05:12;102238.70;;;3.99;92.06
62926;BME280;55732;52.248;-0.844;2023-01-27T05:07:38;102242.20;;;4.00;91.75
62926;BME280;55732;52.248;-0.844;2023-01-27T05:10:05;102242.91;;;4.00;92.01
62926;BME280;55732;52.248;-0.844;2023-01-27T05:12:31;102241.58;;;4.01;92.21
62926;BME280;55732;52.248;-0.844;2023-01-27T05:14:57;102244.35;;;4.01;91.96
62926;BME280;55732;52.248;-0.844;2023-01-27T05:17:22;102250.25;;;4.01;92.04
62926;BME280;55732;52.248;-0.844;2023-01-27T05:19:48;102241.75;;;3.98;92.14
62926;BME280;55732;52.248;-0.844;2023-01-27T05:22:13;102244.70;;;3.97;92.29
62926;BME280;55732;52.248;-0.844;2023-01-27T05:24:39;102245.52;;;3.97;92.26
62926;BME280;55732;52.248;-0.844;2023-01-27T05:27:04;102243.58;;;3.96;92.29
62926;BME280;55732;52.248;-0.844;2023-01-27T05:29:30;102238.52;;;3.96;92.46
62926;BME280;55732;52.248;-0.844;2023-01-27T05:31:55;102246.30;;;3.95;92.30
62926;BME280;55732;52.248;-0.844;2023-01-27T05:34:21;102246.66;;;3.95;92.20
62926;BME280;55732;52.248;-0.844;2023-01-27T05:36:47;102248.52;;;3.94;92.36
62926;BME280;55732;52.248;-0.844;2023-01-27T05:39:12;102242.07;;;3.94;92.39
62926;BME280;55732;52.248;-0.844;2023-01-27T05:41:38;102252.60;;;3.95;92.52
62926;BME280;55732;52.248;-0.844;2023-01-27T05:44:04;102250.00;;;3.96;92.41
62926;BME280;55732;52.248;-0.844;2023-01-27T05:46:31;102248.94;;;3.95;92.53
62926;BME280;55732;52.248;-0.844;2023-01-27T05:49:02;102254.01;;;3.96;92.52
62926;BME280;55732;52.248;-0.844;2023-01-27T05:51:31;102253.45;;;3.95;92.49
62926;BME280;55732;52.248;-0.844;2023-01-27T05:53:57;102249.79;;;3.95;92.40
62926;BME280;55732;52.248;-0.844;2023-01-27T05:56:23;102246.54;;;3.96;92.46
62926;BME280;55732;52.248;-0.844;2023-01-27T05:58:53;102247.40;;;3.96;92.35
62926;BME280;55732;52.248;-0.844;2023-01-27T06:01:32;102248.59;;;3.96;92.29
62926;BME280;55732;52.248;-0.844;2023-01-27T06:03:58;102250.48;;;3.95;92.41
62926;BME280;55732;52.248;-0.844;2023-01-27T06:06:26;102253.10;;;3.95;92.44
62926;BME280;55732;52.248;-0.844;2023-01-27T06:08:52;102249.04;;;3.97;92.53
62926;BME280;55732;52.248;-0.844;2023-01-27T06:11:18;102251.73;;;3.99;92.32
62926;BME280;55732;52.248;-0.844;2023-01-27T06:13:45;102253.80;;;3.98;92.17
62926;BME280;55732;52.248;-0.844;2023-01-27T06:16:13;102258.30;;;3.98;92.01
62926;BME280;55732;52.248;-0.844;2023-01-27T06:18:40;102260.20;;;3.97;92.12
62926;BME280;55732;52.248;-0.844;2023-01-27T06:21:07;102261.23;;;3.97;91.96
62926;BME280;55732;52.248;-0.844;2023-01-27T06:23:34;102264.56;;;3.97;91.92
62926;BME280;55732;52.248;-0.844;2023-01-27T06:26:01;102264.66;;;3.99;92.01
62926;BME280;55732;52.248;-0.844;2023-01-27T06:28:28;102269.29;;;4.01;92.05
62926;BME280;55732;52.248;-0.844;2023-01-27T06:30:53;102265.76;;;4.04;91.94
62926;BME280;55732;52.248;-0.844;2023-01-27T06:33:19;102265.00;;;4.06;91.80
62926;BME280;55732;52.248;-0.844;2023-01-27T06:35:44;102264.88;;;4.07;91.62
62926;BME280;55732;52.248;-0.844;2023-01-27T06:38:11;102257.65;;;4.02;91.82
62926;BME280;55732;52.248;-0.844;2023-01-27T06:40:38;102261.36;;;4.07;91.60
62926;BME280;55732;52.248;-0.844;2023-01-27T06:43:03;102257.82;;;4.06;91.62
62926;BME280;55732;52.248;-0.844;2023-01-27T06:45:29;102254.73;;;4.06;91.86
62926;BME280;55732;52.248;-0.844;2023-01-27T06:47:56;102251.66;;;4.08;91.85
62926;BME280;55732;52.248;-0.844;2023-01-27T06:50:23;102252.40;;;4.08;91.79
62926;BME280;55732;52.248;-0.844;2023-01-27T06:52:50;102259.77;;;4.10;91.80
62926;BME280;55732;52.248;-0.844;2023-01-27T06:55:16;102259.92;;;4.09;91.64
62926;BME280;55732;52.248;-0.844;2023-01-27T06:57:44;102258.80;;;4.08;91.60
62926;BME280;55732;52.248;-0.844;2023-01-27T07:00:12;102251.34;;;4.02;91.58
62926;BME280;55732;52.248;-0.844;2023-01-27T07:02:38;102247.02;;;3.99;91.56
62926;BME280;55732;52.248;-0.844;2023-01-27T07:05:03;102256.43;;;4.03;91.81
62926;BME280;55732;52.248;-0.844;2023-01-27T07:07:29;102261.69;;;4.03;91.64
62926;BME280;55732;52.248;-0.844;2023-01-27T07:09:54;102253.71;;;4.04;91.81
62926;BME280;55732;52.248;-0.844;2023-01-27T07:12:20;102257.95;;;4.05;91.74
62926;BME280;55732;52.248;-0.844;2023-01-27T07:14:45;102260.60;;;4.05;91.76
62926;BME280;55732;52.248;-0.844;2023-01-27T07:17:10;102261.30;;;4.06;91.76
62926;BME280;55732;52.248;-0.844;2023-01-27T07:19:36;102265.72;;;4.06;91.81
62926;BME280;55732;52.248;-0.844;2023-01-27T07:22:01;102265.63;;;4.08;91.76
62926;BME280;55732;52.248;-0.844;2023-01-27T07:24:26;102265.20;;;4.10;91.72
62926;BME280;55732;52.248;-0.844;2023-01-27T07:26:52;102265.37;;;4.10;91.59
62926;BME280;55732;52.248;-0.844;2023-01-27T07:29:17;102267.33;;;4.10;91.39
62926;BME280;55732;52.248;-0.844;2023-01-27T07:31:43;102279.02;;;4.07;91.16
62926;BME280;55732;52.248;-0.844;2023-01-27T07:34:09;102271.95;;;4.06;91.40
62926;BME280;55732;52.248;-0.844;2023-01-27T07:36:35;102275.95;;;4.06;91.23
62926;BME280;55732;52.248;-0.844;2023-01-27T07:39:00;102280.27;;;4.05;91.26
62926;BME280;55732;52.248;-0.844;2023-01-27T07:41:25;102277.85;;;4.05;90.99
62926;BME280;55732;52.248;-0.844;2023-01-27T07:43:51;102275.94;;;4.06;90.87
62926;BME280;55732;52.248;-0.844;2023-01-27T07:46:16;102276.27;;;4.05;90.94
62926;BME280;55732;52.248;-0.844;2023-01-27T07:48:41;102279.48;;;4.07;91.06
62926;BME280;55732;52.248;-0.844;2023-01-27T07:51:11;102278.36;;;4.08;90.88
62926;BME280;55732;52.248;-0.844;2023-01-27T07:53:38;102280.70;;;4.10;90.86
62926;BME280;55732;52.248;-0.844;2023-01-27T07:56:03;102275.24;;;4.12;90.78
62926;BME280;55732;52.248;-0.844;2023-01-27T07:58:29;102276.73;;;4.14;90.79
62926;BME280;55732;52.248;-0.844;2023-01-27T08:00:54;102275.56;;;4.15;90.72
62926;BME280;55732;52.248;-0.844;2023-01-27T08:03:24;102278.48;;;4.18;90.73
62926;BME280;55732;52.248;-0.844;2023-01-27T08:05:51;102282.96;;;4.19;90.67
62926;BME280;55732;52.248;-0.844;2023-01-27T08:08:17;102288.50;;;4.22;90.37
62926;BME280;55732;52.248;-0.844;2023-01-27T08:10:43;102289.91;;;4.22;90.31
62926;BME280;55732;52.248;-0.844;2023-01-27T08:13:13;102290.45;;;4.23;90.09
62926;BME280;55732;52.248;-0.844;2023-01-27T08:15:39;102290.31;;;4.23;90.05
62926;BME280;55732;52.248;-0.844;2023-01-27T08:18:04;102280.58;;;4.23;90.00
62926;BME280;55732;52.248;-0.844;2023-01-27T08:20:30;102281.83;;;4.24;90.00
62926;BME280;55732;52.248;-0.844;2023-01-27T08:22:56;102281.17;;;4.25;89.86
62926;BME280;55732;52.248;-0.844;2023-01-27T08:25:22;102279.74;;;4.28;89.74
62926;BME280;55732;52.248;-0.844;2023-01-27T08:27:51;102281.95;;;4.30;89.60
62926;BME280;55732;52.248;-0.844;2023-01-27T08:30:17;102285.52;;;4.32;89.45
62926;BME280;55732;52.248;-0.844;2023-01-27T08:32:43;102283.50;;;4.33;89.34
62926;BME280;55732;52.248;-0.844;2023-01-27T08:35:08;102280.61;;;4.34;89.05
62926;BME280;55732;52.248;-0.844;2023-01-27T08:37:34;102284.69;;;4.36;88.90
62926;BME280;55732;52.248;-0.844;2023-01-27T08:39:59;102283.88;;;4.38;89.00
62926;BME280;55732;52.248;-0.844;2023-01-27T08:42:25;102291.30;;;4.40;88.83
62926;BME280;55732;52.248;-0.844;2023-01-27T08:44:50;102295.33;;;4.40;88.40
62926;BME280;55732;52.248;-0.844;2023-01-27T08:47:16;102291.98;;;4.40;88.38
62926;BME280;55732;52.248;-0.844;2023-01-27T08:49:41;102291.73;;;4.41;88.45
62926;BME280;55732;52.248;-0.844;2023-01-27T08:52:06;102287.56;;;4.45;88.18
62926;BME280;55732;52.248;-0.844;2023-01-27T08:54:32;102289.41;;;4.47;88.08
62926;BME280;55732;52.248;-0.844;2023-01-27T08:56:57;102289.29;;;4.48;88.08
62926;BME280;55732;52.248;-0.844;2023-01-27T08:59:23;102290.72;;;4.49;87.99
62926;BME280;55732;52.248;-0.844;2023-01-27T09:01:48;102293.09;;;4.51;87.91
62926;BME280;55732;52.248;-0.844;2023-01-27T09:04:14;102299.91;;;4.54;87.96
62926;BME280;55732;52.248;-0.844;2023-01-27T09:06:39;102296.77;;;4.57;87.68
62926;BME280;55732;52.248;-0.844;2023-01-27T09:09:04;102296.46;;;4.62;87.55
62926;BME280;55732;52.248;-0.844;2023-01-27T09:11:36;102298.51;;;4.68;87.22
62926;BME280;55732;52.248;-0.844;2023-01-27T09:14:02;102303.08;;;4.72;87.18
62926;BME280;55732;52.248;-0.844;2023-01-27T09:16:28;102301.77;;;4.77;87.13
62926;BME280;55732;52.248;-0.844;2023-01-27T09:18:54;102309.05;;;4.83;87.06
62926;BME280;55732;52.248;-0.844;2023-01-27T09:21:19;102309.19;;;4.86;86.65
62926;BME280;55732;52.248;-0.844;2023-01-27T09:23:47;102314.37;;;4.89;86.41
62926;BME280;55732;52.248;-0.844;2023-01-27T09:26:13;102313.23;;;4.90;86.46
62926;BME280;55732;52.248;-0.844;2023-01-27T09:28:38;102318.49;;;4.94;86.60
62926;BME280;55732;52.248;-0.844;2023-01-27T09:31:04;102322.55;;;4.99;86.53
62926;BME280;55732;52.248;-0.844;2023-01-27T09:33:29;102327.64;;;5.06;86.23
62926;BME280;55732;52.248;-0.844;2023-01-27T09:36:07;102324.42;;;5.16;86.15
62926;BME280;55732;52.248;-0.844;2023-01-27T09:38:41;102329.49;;;5.23;86.20
62926;BME280;55732;52.248;-0.844;2023-01-27T09:41:19;102328.79;;;5.30;86.07
62926;BME280;55732;52.248;-0.844;2023-01-27T10:07:58;102340.52;;;5.60;84.03
62926;BME280;55732;52.248;-0.844;2023-01-27T10:16:32;102353.55;;;5.58;83.54
62926;BME280;55732;52.248;-0.844;2023-01-27T10:22:02;102354.86;;;5.60;83.29
62926;BME280;55732;52.248;-0.844;2023-01-27T10:27:18;102356.70;;;5.65;83.29
62926;BME280;55732;52.248;-0.844;2023-01-27T10:29:54;102355.52;;;5.66;83.07
62926;BME280;55732;52.248;-0.844;2023-01-27T10:37:46;102349.07;;;5.78;82.84
62926;BME280;55732;52.248;-0.844;2023-01-27T10:40:58;102346.65;;;5.82;82.76
62926;BME280;55732;52.248;-0.844;2023-01-27T10:43:40;102347.83;;;5.88;82.47
62926;BME280;55732;52.248;-0.844;2023-01-27T10:48:51;102348.27;;;5.98;82.53
62926;BME280;55732;52.248;-0.844;2023-01-27T10:56:20;102350.62;;;6.07;81.65
62926;BME280;55732;52.248;-0.844;2023-01-27T11:01:26;102339.81;;;6.12;82.27
62926;BME280;55732;52.248;-0.844;2023-01-27T11:06:40;102333.98;;;6.26;81.98
62926;BME280;55732;52.248;-0.844;2023-01-27T11:11:31;102340.60;;;6.37;81.59
62926;BME280;55732;52.248;-0.844;2023-01-27T11:16:44;102346.84;;;6.35;81.30
62926;BME280;55732;52.248;-0.844;2023-01-27T11:19:35;102342.60;;;6.34;81.18
62926;BME280;55732;52.248;-0.844;2023-01-27T11:22:06;102339.70;;;6.36;81.32
62926;BME280;55732;52.248;-0.844;2023-01-27T11:24:44;102340.20;;;6.44;80.68
62926;BME280;55732;52.248;-0.844;2023-01-27T11:30:37;102337.36;;;6.46;80.44
62926;BME280;55732;52.248;-0.844;2023-01-27T11:33:19;102332.38;;;6.53;80.60
62926;BME280;55732;52.248;-0.844;2023-01-27T11:35:48;102327.45;;;6.61;80.27
62926;BME280;55732;52.248;-0.844;2023-01-27T11:38:18;102327.96;;;6.65;80.09
62926;BME280;55732;52.248;-0.844;2023-01-27T11:40:45;102322.18;;;6.69;79.92
62926;BME280;55732;52.248;-0.844;2023-01-27T11:43:20;102323.05;;;6.72;79.90
62926;BME280;55732;52.248;-0.844;2023-01-27T11:45:49;102319.93;;;6.73;79.32
62926;BME280;55732;52.248;-0.844;2023-01-27T11:48:18;102313.52;;;6.70;79.52
62926;BME280;55732;52.248;-0.844;2023-01-27T11:50:45;102312.52;;;6.72;79.73
62926;BME280;55732;52.248;-0.844;2023-01-27T11:53:28;102311.46;;;6.76;79.56
62926;BME280;55732;52.248;-0.844;2023-01-27T11:56:08;102309.56;;;6.80;79.26
62926;BME280;55732;52.248;-0.844;2023-01-27T11:58:48;102301.57;;;6.82;78.83
62926;BME280;55732;52.248;-0.844;2023-01-27T12:01:19;102305.40;;;6.86;78.56
62926;BME280;55732;52.248;-0.844;2023-01-27T12:06:20;102301.05;;;6.91;78.09
62926;BME280;55732;52.248;-0.844;2023-01-27T12:08:50;102300.23;;;6.92;78.26
62926;BME280;55732;52.248;-0.844;2023-01-27T12:11:23;102298.08;;;6.99;78.02
62926;BME280;55732;52.248;-0.844;2023-01-27T12:13:56;102300.37;;;7.04;77.53
62926;BME280;55732;52.248;-0.844;2023-01-27T12:16:26;102299.66;;;7.04;76.58
62926;BME280;55732;52.248;-0.844;2023-01-27T12:19:03;102296.36;;;7.00;76.63
62926;BME280;55732;52.248;-0.844;2023-01-27T12:21:45;102291.74;;;6.99;76.74
62926;BME280;55732;52.248;-0.844;2023-01-27T12:24:40;102289.08;;;7.06;77.15
62926;BME280;55732;52.248;-0.844;2023-01-27T12:27:05;102289.09;;;7.19;76.93
62926;BME280;55732;52.248;-0.844;2023-01-27T12:29:40;102288.73;;;7.32;76.78
62926;BME280;55732;52.248;-0.844;2023-01-27T12:32:16;102289.25;;;7.41;76.21
62926;BME280;55732;52.248;-0.844;2023-01-27T12:34:49;102284.05;;;7.43;75.44
62926;BME280;55732;52.248;-0.844;2023-01-27T12:37:27;102279.11;;;7.42;75.60
62926;BME280;55732;52.248;-0.844;2023-01-27T12:40:00;102282.93;;;7.46;75.94
62926;BME280;55732;52.248;-0.844;2023-01-27T12:42:47;102283.67;;;7.47;75.13
62926;BME280;55732;52.248;-0.844;2023-01-27T12:45:33;102283.73;;;7.44;74.93
62926;BME280;55732;52.248;-0.844;2023-01-27T12:50:39;102288.27;;;7.39;74.93
62926;BME280;55732;52.248;-0.844;2023-01-27T12:53:11;102284.25;;;7.44;75.04
62926;BME280;55732;52.248;-0.844;2023-01-27T12:58:57;102275.21;;;7.50;75.21
62926;BME280;55732;52.248;-0.844;2023-01-27T13:01:30;102272.20;;;7.58;75.65
62926;BME280;55732;52.248;-0.844;2023-01-27T13:04:02;102266.15;;;7.60;74.96
62926;BME280;55732;52.248;-0.844;2023-01-27T13:06:37;102265.75;;;7.59;74.47
62926;BME280;55732;52.248;-0.844;2023-01-27T13:09:30;102261.89;;;7.59;74.54
62926;BME280;55732;52.248;-0.844;2023-01-27T13:14:41;102256.30;;;7.78;74.85
62926;BME280;55732;52.248;-0.844;2023-01-27T13:17:27;102265.86;;;7.85;74.38
62926;BME280;55732;52.248;-0.844;2023-01-27T13:19:59;102257.77;;;7.90;72.67
62926;BME280;55732;52.248;-0.844;2023-01-27T13:22:28;102250.21;;;7.88;73.02
62926;BME280;55732;52.248;-0.844;2023-01-27T13:25:01;102252.56;;;7.91;72.89
62926;BME280;55732;52.248;-0.844;2023-01-27T13:27:32;102248.85;;;7.95;72.74
62926;BME280;55732;52.248;-0.844;2023-01-27T13:30:12;102251.67;;;8.00;72.71
62926;BME280;55732;52.248;-0.844;2023-01-27T13:32:43;102251.41;;;7.98;71.66
62926;BME280;55732;52.248;-0.844;2023-01-27T13:37:53;102247.54;;;7.93;71.60
62926;BME280;55732;52.248;-0.844;2023-01-27T13:40:36;102250.19;;;7.98;71.57
62926;BME280;55732;52.248;-0.844;2023-01-27T13:43:25;102249.72;;;8.05;71.24
62926;BME280;55732;52.248;-0.844;2023-01-27T13:45:57;102248.78;;;8.03;71.12
62926;BME280;55732;52.248;-0.844;2023-01-27T13:48:31;102250.28;;;8.01;71.25
62926;BME280;55732;52.248;-0.844;2023-01-27T13:51:07;102245.14;;;7.94;70.76
62926;BME280;55732;52.248;-0.844;2023-01-27T13:53:35;102239.66;;;7.83;70.04
62926;BME280;55732;52.248;-0.844;2023-01-27T14:11:29;102243.84;;;7.45;71.15
62926;BME280;55732;52.248;-0.844;2023-01-27T14:14:13;102241.60;;;7.42;71.30
62926;BME280;55732;52.248;-0.844;2023-01-27T14:16:51;102235.67;;;7.43;71.03
62926;BME280;55732;52.248;-0.844;2023-01-27T14:22:22;102235.30;;;7.41;71.13
62926;BME280;55732;52.248;-0.844;2023-01-27T14:27:33;102228.28;;;7.46;70.45
62926;BME280;55732;52.248;-0.844;2023-01-27T14:40:51;102235.89;;;7.58;69.23
62926;BME280;55732;52.248;-0.844;2023-01-27T14:46:04;102239.08;;;7.58;69.42
62926;BME280;55732;52.248;-0.844;2023-01-27T14:51:44;102237.49;;;7.49;69.44
62926;BME280;55732;52.248;-0.844;2023-01-27T15:02:32;102238.80;;;7.19;69.49
62926;BME280;55732;52.248;-0.844;2023-01-27T15:21:35;102245.65;;;6.76;69.52
62926;BME280;55732;52.248;-0.844;2023-01-27T15:26:51;102251.66;;;6.65;70.19
62926;BME280;55732;52.248;-0.844;2023-01-27T15:29:19;102254.49;;;6.61;70.46
62926;BME280;55732;52.248;-0.844;2023-01-27T15:34:34;102259.38;;;6.53;70.50
62926;BME280;55732;52.248;-0.844;2023-01-27T15:43:11;102262.61;;;6.42;70.90